Archival Weather

Chicago O'Hare International

Chicago, Illinois (KORD)

Report from: Saturday, December 31, 2022 12:51 AM CST
Current time: Saturday, September 30, 2023 9:39 PM CDT

Current weather
Weather history
Weather forecast

Temperature-1.1°C (30.0°F)
Dew point-3.9°C (25.0°F)
Winds Calm
Visibility10 mi. (16.1 km)
Clouds Ceiling: Broken clouds 25,000 ft. (7,620 m)
Altimeter29.94 in.Hg (1014 mB)
Relative humidity81 %
Density altitude-1,944 ft. (-592 m)
Sea-level pressure101.5 kPa (1015 mB, 29.96 in.Hg)
Remarks Automated weather observing station with precipitation discriminator
Flight conditions Visual Meteorological Conditions
Raw dataKORD 310651Z 00000KT 10SM BKN250 M01/M04 A2994 RMK AO2 SLP145 T10111039
An error has occurred. This application may no longer respond until reloaded. Reload 🗙